Time;durP1;ratioP1;P1;durP2;ratioP2;P2;SDS_P1;SDS_P2;PMS_P1;PMS_P2;Temp;Humidity;BMP_temperature;BMP_pressure;BME280_temperature;BME280_humidity;BME280_pressure;Samples;Min_cycle;Max_cycle;Signal;HPM_P1;HPM_P2
2023/12/10 00:00:16;;;;;;;5.57;2.27;;;3.90;99.90;;;;;;4180089;28;20462;-86
2023/12/10 00:02:18;;;;;;;9.90;2.57;;;4.00;99.90;;;;;;4176351;28;20489;-84
2023/12/10 00:04:21;;;;;;;7.97;2.23;;;3.90;99.90;;;;;;4186073;28;20938;-86
2023/12/10 00:06:23;;;;;;;7.47;2.50;;;4.20;99.90;;;;;;4173831;28;20450;-85
2023/12/10 00:08:27;;;;;;;6.27;2.40;;;3.90;99.90;;;;;;4179609;28;20805;-85
2023/12/10 00:10:29;;;;;;;6.73;2.80;;;3.90;99.90;;;;;;4178113;28;20553;-88
2023/12/10 00:12:33;;;;;;;4.37;2.37;;;4.30;99.90;;;;;;4178551;28;20975;-85
2023/12/10 00:14:38;;;;;;;5.40;2.30;;;3.90;99.90;;;;;;4182176;28;20495;-85
2023/12/10 00:16:40;;;;;;;4.50;2.10;;;3.90;99.90;;;;;;4178296;28;20552;-85
2023/12/10 00:18:42;;;;;;;4.60;2.13;;;3.90;99.90;;;;;;4178073;28;20457;-83
2023/12/10 00:20:45;;;;;;;2.83;1.97;;;3.90;99.90;;;;;;4176980;28;20886;-85
2023/12/10 00:22:47;;;;;;;4.97;2.10;;;3.90;99.90;;;;;;4178586;28;20555;-84
2023/12/10 00:24:51;;;;;;;5.07;1.97;;;3.90;99.90;;;;;;4174964;28;20540;-84
2023/12/10 00:26:53;;;;;;;3.30;1.83;;;3.90;99.90;;;;;;4184066;28;20454;-85
2023/12/10 00:28:55;;;;;;;3.73;1.67;;;3.80;99.90;;;;;;4188291;28;20476;-85
2023/12/10 00:30:57;;;;;;;6.27;2.30;;;3.80;99.90;;;;;;4184431;28;20477;-82
2023/12/10 00:32:59;;;;;;;4.50;1.83;;;3.80;99.90;;;;;;4179729;28;20452;-83
2023/12/10 00:35:01;;;;;;;3.80;1.80;;;3.80;99.90;;;;;;4177547;28;20445;-85
2023/12/10 00:37:04;;;;;;;4.30;1.93;;;3.80;99.90;;;;;;4180299;28;20457;-85
2023/12/10 00:39:06;;;;;;;3.93;1.70;;;3.80;99.90;;;;;;4188583;28;20445;-85
2023/12/10 00:41:11;;;;;;;3.83;1.40;;;3.80;99.90;;;;;;4188067;28;20512;-82
2023/12/10 00:43:14;;;;;;;3.80;1.30;;;3.80;99.90;;;;;;4191517;28;21318;-85
2023/12/10 00:45:15;;;;;;;4.97;1.40;;;3.80;99.90;;;;;;4187801;28;20509;-82
2023/12/10 00:47:17;;;;;;;2.43;1.07;;;3.80;99.90;;;;;;4192738;28;20440;-82
2023/12/10 00:49:19;;;;;;;3.83;1.30;;;3.80;99.90;;;;;;4191976;28;20514;-84
2023/12/10 00:51:22;;;;;;;5.07;1.47;;;3.80;99.90;;;;;;4191505;28;20447;-83
2023/12/10 00:53:24;;;;;;;3.20;1.10;;;3.80;99.90;;;;;;4190302;28;20440;-84
2023/12/10 00:55:26;;;;;;;2.90;1.13;;;3.80;99.90;;;;;;4186882;28;21039;-85
2023/12/10 00:57:30;;;;;;;3.63;1.10;;;3.80;99.90;;;;;;4190675;28;20455;-82
2023/12/10 00:59:32;;;;;;;2.33;1.00;;;3.80;99.90;;;;;;4184817;28;20469;-82
2023/12/10 01:01:34;;;;;;;2.13;1.10;;;3.80;99.90;;;;;;4186636;28;20461;-82
2023/12/10 01:03:36;;;;;;;2.17;1.37;;;3.80;99.90;;;;;;4186849;28;20671;-80
2023/12/10 01:05:38;;;;;;;1.70;0.90;;;3.80;99.90;;;;;;4186591;28;20454;-84
2023/12/10 01:07:40;;;;;;;1.23;1.00;;;3.80;99.90;;;;;;4188897;28;20466;-82
2023/12/10 01:09:42;;;;;;;5.80;1.10;;;3.90;99.90;;;;;;4183127;28;20463;-81
2023/12/10 01:11:44;;;;;;;2.33;1.07;;;3.80;99.90;;;;;;4182822;28;20434;-81
2023/12/10 01:13:48;;;;;;;3.10;1.23;;;3.70;99.90;;;;;;4181968;28;20539;-84
2023/12/10 01:15:49;;;;;;;1.43;1.00;;;3.80;99.90;;;;;;4183149;28;20820;-81
2023/12/10 01:17:51;;;;;;;1.67;1.07;;;3.80;99.90;;;;;;4183827;28;20819;-82
2023/12/10 01:19:53;;;;;;;3.03;1.10;;;4.00;99.90;;;;;;4183857;28;20481;-82
2023/12/10 01:21:55;;;;;;;4.77;1.33;;;3.80;99.90;;;;;;4182277;28;20491;-81
2023/12/10 01:23:57;;;;;;;1.70;1.20;;;3.80;99.90;;;;;;4180572;28;20876;-85
2023/12/10 01:25:58;;;;;;;2.47;1.00;;;3.80;99.90;;;;;;4184583;28;20447;-80
2023/12/10 01:28:01;;;;;;;2.13;1.27;;;3.80;99.90;;;;;;4185590;28;20437;-81
2023/12/10 01:30:05;;;;;;;2.57;1.30;;;3.80;99.90;;;;;;4178276;28;20520;-84
2023/12/10 01:32:07;;;;;;;1.80;1.13;;;3.80;99.90;;;;;;4181961;28;20987;-82
2023/12/10 01:34:09;;;;;;;1.27;1.00;;;3.60;99.90;;;;;;4182849;28;20460;-81
2023/12/10 01:36:22;;;;;;;1.77;1.10;;;3.80;99.90;;;;;;4185679;28;20432;-81
2023/12/10 01:38:24;;;;;;;3.00;1.47;;;3.80;99.90;;;;;;4182196;28;20465;-80
2023/12/10 01:40:27;;;;;;;2.13;1.33;;;3.80;99.90;;;;;;4185627;28;20461;-81
2023/12/10 01:42:29;;;;;;;2.97;1.27;;;3.80;99.90;;;;;;4184468;28;20480;-80
2023/12/10 01:44:32;;;;;;;3.10;1.37;;;3.80;99.90;;;;;;4186588;28;20511;-83
2023/12/10 01:46:36;;;;;;;2.30;1.40;;;3.90;99.90;;;;;;4192186;28;20450;-85
2023/12/10 01:48:40;;;;;;;2.40;1.47;;;3.80;99.90;;;;;;4187791;28;20536;-85
2023/12/10 01:50:44;;;;;;;2.70;1.50;;;4.10;99.90;;;;;;4191636;28;20456;-83
2023/12/10 01:52:47;;;;;;;3.67;1.33;;;3.80;99.90;;;;;;4188839;28;20442;-83
2023/12/10 01:54:50;;;;;;;3.47;1.60;;;3.80;99.90;;;;;;4191633;28;20441;-83
2023/12/10 01:56:52;;;;;;;4.00;1.77;;;3.90;99.90;;;;;;4187698;28;20537;-84
2023/12/10 01:58:53;;;;;;;3.10;1.57;;;3.80;99.90;;;;;;4185092;28;20505;-84
2023/12/10 02:00:55;;;;;;;2.40;1.37;;;3.90;99.90;;;;;;4182744;28;20817;-84
2023/12/10 02:03:00;;;;;;;2.63;1.60;;;3.90;99.90;;;;;;4179534;28;20552;-84
2023/12/10 02:05:06;;;;;;;3.10;1.47;;;3.90;99.90;;;;;;4182537;28;20543;-84
2023/12/10 02:07:08;;;;;;;2.30;1.40;;;3.90;99.90;;;;;;4187261;28;20442;-84
2023/12/10 02:09:17;;;;;;;2.70;1.50;;;3.90;99.90;;;;;;4176495;28;20457;-84
2023/12/10 02:11:20;;;;;;;2.00;1.40;;;3.90;99.90;;;;;;4181306;28;20441;-84
2023/12/10 02:13:22;;;;;;;4.20;1.53;;;3.90;99.90;;;;;;4183281;28;20483;-84
2023/12/10 02:15:28;;;;;;;2.47;1.60;;;3.90;99.90;;;;;;4183932;28;20448;-84
2023/12/10 02:17:30;;;;;;;1.73;1.33;;;4.00;99.90;;;;;;4183011;28;20453;-84
2023/12/10 02:19:35;;;;;;;2.30;1.20;;;3.90;99.90;;;;;;4178853;28;20485;-85
2023/12/10 02:21:42;;;;;;;2.63;1.60;;;4.00;99.90;;;;;;4181009;28;20524;-84
2023/12/10 02:23:57;;;;;;;2.80;1.20;;;4.00;99.90;;;;;;4181547;28;20474;-85
2023/12/10 02:26:01;;;;;;;1.80;1.37;;;3.90;99.90;;;;;;4179668;28;20445;-84
2023/12/10 02:28:03;;;;;;;2.37;1.50;;;4.00;99.90;;;;;;4179878;28;21267;-84
2023/12/10 02:30:07;;;;;;;2.57;1.50;;;4.10;99.90;;;;;;4186608;28;20477;-85
2023/12/10 02:32:09;;;;;;;2.57;1.30;;;4.10;99.90;;;;;;4181679;28;20957;-85
2023/12/10 02:34:11;;;;;;;4.17;1.77;;;4.10;99.90;;;;;;4175788;28;20804;-84
2023/12/10 02:36:13;;;;;;;3.10;1.60;;;4.10;99.90;;;;;;4188185;28;20463;-84
2023/12/10 02:38:20;;;;;;;3.07;1.67;;;4.20;99.90;;;;;;4181984;28;20459;-84
2023/12/10 02:40:22;;;;;;;2.60;1.47;;;4.20;99.90;;;;;;4185627;28;20569;-84
2023/12/10 02:42:27;;;;;;;2.43;1.20;;;4.20;99.90;;;;;;4184026;28;20485;-84
2023/12/10 02:44:30;;;;;;;2.73;1.57;;;4.20;99.90;;;;;;4181090;28;20939;-84
2023/12/10 02:46:31;;;;;;;1.70;1.13;;;4.20;99.90;;;;;;4183540;28;20454;-84
2023/12/10 02:48:33;;;;;;;5.73;1.63;;;4.30;99.90;;;;;;4183619;28;20455;-85
2023/12/10 02:50:35;;;;;;;2.10;1.40;;;4.30;99.90;;;;;;4180953;28;20462;-85
2023/12/10 02:52:38;;;;;;;3.67;2.07;;;4.30;99.90;;;;;;4189108;28;20431;-84
2023/12/10 02:54:39;;;;;;;4.57;1.83;;;4.40;99.90;;;;;;4183524;28;20543;-84
2023/12/10 02:56:41;;;;;;;2.87;1.70;;;4.80;99.90;;;;;;4180821;28;20455;-85
2023/12/10 02:58:44;;;;;;;3.23;1.67;;;4.40;99.90;;;;;;4181819;28;20442;-83
2023/12/10 03:00:46;;;;;;;5.10;1.70;;;4.40;99.90;;;;;;4188618;28;20484;-84
2023/12/10 03:02:48;;;;;;;3.53;1.83;;;4.50;99.90;;;;;;4189024;28;20508;-84
2023/12/10 03:04:50;;;;;;;4.63;1.80;;;4.50;99.90;;;;;;4179700;28;20470;-84
2023/12/10 03:06:52;;;;;;;2.70;1.77;;;4.60;99.90;;;;;;4182468;28;20439;-84
2023/12/10 03:08:54;;;;;;;2.63;1.70;;;4.60;99.90;;;;;;4186489;28;20460;-84
2023/12/10 03:10:56;;;;;;;4.83;1.83;;;4.70;99.90;;;;;;4180417;28;20500;-85
2023/12/10 03:12:57;;;;;;;4.63;1.70;;;4.70;99.90;;;;;;4181251;28;20436;-84
2023/12/10 03:15:01;;;;;;;3.20;1.83;;;4.80;99.90;;;;;;4183677;28;20448;-83
2023/12/10 03:17:03;;;;;;;5.70;2.20;;;4.80;99.90;;;;;;4181941;28;20996;-84
2023/12/10 03:19:05;;;;;;;4.57;2.00;;;4.80;99.90;;;;;;4180647;28;20457;-84
2023/12/10 03:21:07;;;;;;;7.73;2.10;;;4.80;99.90;;;;;;4180714;28;20495;-84
2023/12/10 03:23:10;;;;;;;5.73;2.13;;;4.80;99.90;;;;;;4184380;28;20479;-84
2023/12/10 03:25:12;;;;;;;6.57;2.03;;;4.90;99.90;;;;;;4179827;28;20461;-84
2023/12/10 03:27:14;;;;;;;6.80;2.47;;;4.90;99.90;;;;;;4180877;28;20521;-84
2023/12/10 03:29:16;;;;;;;7.57;2.20;;;4.90;99.90;;;;;;4179452;28;20574;-84
2023/12/10 03:31:19;;;;;;;9.47;2.37;;;5.00;99.90;;;;;;4180506;28;20446;-84
2023/12/10 03:33:24;;;;;;;4.23;2.43;;;4.90;99.90;;;;;;4183020;28;20454;-84
2023/12/10 03:35:26;;;;;;;11.03;2.47;;;5.10;99.90;;;;;;4182858;28;20445;-84
2023/12/10 03:37:28;;;;;;;6.30;2.53;;;5.10;99.90;;;;;;4189657;28;20443;-84
2023/12/10 03:39:29;;;;;;;9.67;3.03;;;5.20;99.90;;;;;;4182331;28;20470;-83
2023/12/10 03:41:31;;;;;;;13.07;3.00;;;5.40;99.90;;;;;;4180817;28;20864;-83
2023/12/10 03:43:33;;;;;;;7.20;2.80;;;5.30;99.90;;;;;;4180588;28;20490;-83
2023/12/10 03:45:36;;;;;;;6.80;2.77;;;5.30;99.90;;;;;;4182751;28;20499;-83
2023/12/10 03:47:46;;;;;;;9.73;2.90;;;5.40;99.90;;;;;;4171879;28;20451;-84
2023/12/10 03:49:48;;;;;;;7.17;2.47;;;5.60;99.90;;;;;;4187730;28;21000;-84
2023/12/10 03:51:53;;;;;;;11.63;3.37;;;5.40;99.90;;;;;;4189476;28;20471;-84
2023/12/10 03:53:55;;;;;;;8.50;3.00;;;5.50;99.90;;;;;;4187185;28;21013;-84
2023/12/10 03:55:57;;;;;;;7.87;2.90;;;5.60;99.90;;;;;;4180459;28;20454;-85
2023/12/10 03:57:59;;;;;;;9.37;2.90;;;5.60;99.90;;;;;;4186741;28;20547;-84
2023/12/10 04:00:02;;;;;;;9.23;2.67;;;5.70;99.90;;;;;;4183692;28;20498;-84
2023/12/10 04:02:07;;;;;;;11.97;3.07;;;5.70;99.90;;;;;;4184684;28;20447;-84
2023/12/10 04:04:12;;;;;;;8.90;3.07;;;5.70;99.90;;;;;;4177690;28;20531;-84
2023/12/10 04:06:14;;;;;;;5.30;2.50;;;5.80;99.90;;;;;;4179492;28;20441;-84
2023/12/10 04:08:16;;;;;;;6.00;2.70;;;5.80;99.90;;;;;;4181199;28;20542;-84
2023/12/10 04:10:18;;;;;;;6.60;2.23;;;5.80;99.90;;;;;;4183496;28;20467;-84
2023/12/10 04:12:22;;;;;;;12.47;2.53;;;5.80;99.90;;;;;;4185032;28;20500;-84
2023/12/10 04:14:24;;;;;;;8.07;2.40;;;5.80;99.90;;;;;;4190182;28;20449;-84
2023/12/10 04:16:26;;;;;;;12.80;3.00;;;5.80;99.90;;;;;;4194346;28;20441;-84
2023/12/10 04:18:29;;;;;;;8.43;2.40;;;5.90;99.90;;;;;;4193485;28;20445;-84
2023/12/10 04:20:32;;;;;;;9.83;2.30;;;5.90;99.90;;;;;;4193989;28;20523;-84
2023/12/10 04:22:38;;;;;;;10.10;2.07;;;5.90;99.90;;;;;;4191261;28;20447;-84
2023/12/10 04:24:40;;;;;;;5.77;2.10;;;5.90;99.90;;;;;;4192049;28;20451;-85
2023/12/10 04:26:43;;;;;;;12.23;2.23;;;5.90;99.90;;;;;;4185016;28;20808;-83
2023/12/10 04:28:44;;;;;;;10.37;2.13;;;6.00;99.90;;;;;;4183770;28;20474;-84
2023/12/10 04:30:46;;;;;;;9.63;2.33;;;5.90;99.90;;;;;;4185165;28;20506;-85
2023/12/10 04:32:50;;;;;;;11.53;2.13;;;5.90;99.90;;;;;;4184121;28;20453;-85
2023/12/10 04:34:52;;;;;;;6.40;2.13;;;5.90;99.90;;;;;;4185568;28;20447;-85
2023/12/10 04:36:55;;;;;;;9.07;2.40;;;5.90;99.90;;;;;;4178158;28;20461;-85
2023/12/10 04:38:56;;;;;;;11.33;2.30;;;5.90;99.90;;;;;;4179407;28;21166;-84
2023/12/10 04:40:58;;;;;;;8.97;2.50;;;5.90;99.90;;;;;;4182207;28;20998;-85
2023/12/10 04:43:00;;;;;;;16.63;2.90;;;5.90;99.90;;;;;;4181822;28;20484;-84
2023/12/10 04:45:03;;;;;;;11.97;2.10;;;5.80;99.90;;;;;;4180557;28;20455;-84
2023/12/10 04:47:04;;;;;;;13.03;2.20;;;5.80;99.90;;;;;;4185855;28;20455;-85
2023/12/10 04:49:06;;;;;;;13.87;2.30;;;5.90;99.90;;;;;;4179720;28;20516;-84
2023/12/10 04:51:07;;;;;;;16.60;2.67;;;5.80;99.90;;;;;;4181344;28;20509;-84
2023/12/10 04:53:10;;;;;;;14.10;2.57;;;5.90;99.90;;;;;;4181202;28;20202;-85
2023/12/10 04:55:15;;;;;;;16.67;3.03;;;5.90;99.90;;;;;;4180968;28;20445;-88
2023/12/10 04:57:20;;;;;;;12.70;2.40;;;5.90;99.90;;;;;;4180373;28;20484;-87
2023/12/10 04:59:23;;;;;;;15.23;2.40;;;5.90;99.90;;;;;;4179007;28;20465;-87
2023/12/10 05:01:25;;;;;;;11.73;2.70;;;5.90;99.90;;;;;;4182645;28;20284;-87
2023/12/10 05:03:27;;;;;;;14.13;2.60;;;5.90;99.90;;;;;;4185170;28;20486;-87
2023/12/10 05:05:29;;;;;;;11.20;2.63;;;5.90;99.90;;;;;;4183832;28;20453;-86
2023/12/10 05:07:31;;;;;;;14.50;2.90;;;5.90;99.90;;;;;;4182471;28;20812;-86
2023/12/10 05:09:35;;;;;;;16.40;3.37;;;6.00;99.90;;;;;;4187400;28;20467;-86
2023/12/10 05:11:37;;;;;;;14.23;2.70;;;6.00;99.90;;;;;;4183780;28;20459;-85
2023/12/10 05:13:39;;;;;;;11.83;2.50;;;6.00;99.90;;;;;;4185569;28;20444;-86
2023/12/10 05:15:40;;;;;;;16.00;3.23;;;6.00;99.90;;;;;;4185404;28;20459;-86
2023/12/10 05:17:42;;;;;;;13.33;2.97;;;6.00;99.90;;;;;;4186850;28;20530;-85
2023/12/10 05:19:44;;;;;;;18.70;3.13;;;6.00;99.90;;;;;;4185858;28;20480;-86
2023/12/10 05:21:46;;;;;;;12.83;2.63;;;6.00;99.90;;;;;;4193359;28;20453;-86
2023/12/10 05:23:47;;;;;;;10.97;2.50;;;6.00;99.90;;;;;;4192127;28;20533;-86
2023/12/10 05:25:51;;;;;;;17.10;3.13;;;6.00;99.90;;;;;;4188604;28;20447;-85
2023/12/10 05:27:52;;;;;;;15.80;3.30;;;6.00;99.90;;;;;;4186171;28;20829;-86
2023/12/10 05:29:54;;;;;;;19.03;2.83;;;6.00;99.90;;;;;;4187959;28;20524;-86
2023/12/10 05:31:56;;;;;;;22.93;3.50;;;6.00;99.90;;;;;;4180420;28;20464;-87
2023/12/10 05:33:58;;;;;;;18.60;2.80;;;5.90;99.90;;;;;;4182727;28;20459;-86
2023/12/10 05:36:02;;;;;;;26.00;2.90;;;6.00;99.90;;;;;;4185633;28;20453;-86
2023/12/10 05:38:06;;;;;;;13.33;2.83;;;5.90;99.90;;;;;;4181909;28;20452;-86
2023/12/10 05:40:09;;;;;;;14.63;2.87;;;5.90;99.90;;;;;;4183689;28;20503;-86
2023/12/10 05:42:13;;;;;;;14.63;2.87;;;5.90;99.90;;;;;;4184504;28;20834;-86
2023/12/10 05:44:15;;;;;;;20.03;3.13;;;5.80;99.90;;;;;;4184382;28;20490;-86
2023/12/10 05:46:17;;;;;;;19.07;3.50;;;5.90;99.90;;;;;;4186177;28;20558;-86
2023/12/10 05:48:22;;;;;;;29.13;3.40;;;5.80;99.90;;;;;;4189444;28;20448;-86
2023/12/10 05:50:24;;;;;;;12.87;2.90;;;5.80;99.90;;;;;;4180787;28;20522;-86
2023/12/10 05:52:26;;;;;;;17.50;3.17;;;5.80;99.90;;;;;;4182172;28;20508;-85
2023/12/10 05:54:28;;;;;;;25.53;3.60;;;5.80;99.90;;;;;;4183105;28;20444;-84
2023/12/10 05:56:30;;;;;;;16.20;3.20;;;5.80;99.90;;;;;;4187540;28;20468;-85
2023/12/10 05:58:33;;;;;;;21.37;3.30;;;5.80;99.90;;;;;;4183147;28;20580;-85
2023/12/10 06:00:35;;;;;;;13.23;3.13;;;5.80;99.90;;;;;;4181983;28;20482;-85
2023/12/10 06:02:37;;;;;;;20.40;3.27;;;5.80;99.90;;;;;;4185009;28;20459;-85
2023/12/10 06:04:39;;;;;;;24.90;3.63;;;5.80;99.90;;;;;;4179581;28;20490;-85
2023/12/10 06:06:41;;;;;;;24.67;4.13;;;5.80;99.90;;;;;;4185142;28;20526;-85
2023/12/10 06:08:43;;;;;;;20.53;3.97;;;5.80;99.90;;;;;;4188357;28;20476;-84
2023/12/10 06:10:47;;;;;;;14.33;3.70;;;5.70;99.90;;;;;;4185197;28;20505;-85
2023/12/10 06:12:50;;;;;;;14.63;3.27;;;5.70;99.90;;;;;;4182083;28;20466;-85
2023/12/10 06:14:54;;;;;;;15.13;3.23;;;5.80;99.90;;;;;;4181937;28;20481;-85
2023/12/10 06:16:56;;;;;;;12.47;3.07;;;5.70;99.90;;;;;;4180183;28;20538;-84
2023/12/10 06:18:58;;;;;;;19.53;3.77;;;5.70;99.90;;;;;;4181797;28;20449;-85
2023/12/10 06:21:00;;;;;;;24.93;3.70;;;5.70;99.90;;;;;;4181171;28;20480;-85
2023/12/10 06:23:02;;;;;;;16.87;3.13;;;5.60;99.90;;;;;;4184492;28;20456;-84
2023/12/10 06:25:04;;;;;;;13.87;4.03;;;5.40;99.90;;;;;;4182904;28;21025;-83
2023/12/10 06:27:06;;;;;;;13.63;3.50;;;5.60;99.90;;;;;;4185831;28;20459;-85
2023/12/10 06:29:08;;;;;;;15.97;3.27;;;5.60;99.90;;;;;;4182928;28;20452;-84
2023/12/10 06:31:12;;;;;;;14.43;3.10;;;5.60;99.90;;;;;;4184077;28;20474;-85
2023/12/10 06:33:14;;;;;;;11.70;3.00;;;5.60;99.90;;;;;;4184534;28;20901;-85
2023/12/10 06:35:16;;;;;;;13.43;3.23;;;5.40;99.90;;;;;;4189313;28;20444;-85
2023/12/10 06:37:18;;;;;;;19.70;3.37;;;5.60;99.90;;;;;;4183199;28;20542;-85
2023/12/10 06:39:20;;;;;;;11.47;2.83;;;5.60;99.90;;;;;;4188496;28;20958;-85
2023/12/10 06:41:22;;;;;;;20.33;3.13;;;5.60;99.90;;;;;;4187771;28;20448;-85
2023/12/10 06:43:26;;;;;;;19.13;3.20;;;5.60;99.90;;;;;;4201249;28;20451;-85
2023/12/10 06:45:28;;;;;;;16.87;2.80;;;5.60;99.90;;;;;;4188627;28;20477;-84
2023/12/10 06:47:31;;;;;;;19.00;3.80;;;5.60;99.90;;;;;;4187938;28;20463;-84
2023/12/10 06:49:33;;;;;;;15.53;3.10;;;5.60;99.90;;;;;;4188990;28;20308;-84
2023/12/10 06:51:34;;;;;;;22.40;5.03;;;5.60;99.90;;;;;;4188803;28;20830;-85
2023/12/10 06:53:36;;;;;;;18.80;3.07;;;5.60;99.90;;;;;;4186636;28;20942;-85
2023/12/10 06:55:38;;;;;;;22.70;3.33;;;5.60;99.90;;;;;;4185566;28;20453;-85
2023/12/10 06:57:40;;;;;;;14.03;2.83;;;5.60;99.90;;;;;;4183033;28;20801;-86
2023/12/10 06:59:42;;;;;;;17.43;3.07;;;5.60;99.90;;;;;;4179215;28;20469;-84
2023/12/10 07:01:44;;;;;;;19.83;4.10;;;5.50;99.90;;;;;;4180281;28;21094;-85
2023/12/10 07:03:47;;;;;;;10.73;2.63;;;5.70;99.90;;;;;;4179399;28;20499;-85
2023/12/10 07:05:49;;;;;;;20.23;3.07;;;5.60;99.90;;;;;;4181252;28;20514;-84
2023/12/10 07:07:51;;;;;;;18.23;3.33;;;5.60;99.90;;;;;;4186951;28;20463;-85
2023/12/10 07:09:53;;;;;;;20.37;3.00;;;5.60;99.90;;;;;;4182905;28;20534;-85
2023/12/10 07:11:55;;;;;;;17.27;3.00;;;5.60;99.90;;;;;;4180675;28;20448;-85
2023/12/10 07:13:56;;;;;;;17.13;3.47;;;5.60;99.90;;;;;;4176165;28;20449;-85
2023/12/10 07:15:58;;;;;;;19.93;3.37;;;5.60;99.90;;;;;;4180974;28;20900;-85
2023/12/10 07:18:01;;;;;;;16.33;3.30;;;5.60;99.90;;;;;;4180070;28;20445;-85
2023/12/10 07:20:07;;;;;;;23.20;3.37;;;5.60;99.90;;;;;;4180968;28;20971;-85
2023/12/10 07:22:09;;;;;;;19.30;2.60;;;5.60;99.90;;;;;;4184983;28;20455;-84
2023/12/10 07:24:11;;;;;;;23.27;3.10;;;5.60;99.90;;;;;;4180357;28;20479;-85
2023/12/10 07:26:16;;;;;;;21.90;3.63;;;5.60;99.90;;;;;;4183339;28;20538;-85
2023/12/10 07:28:18;;;;;;;19.87;3.43;;;5.60;99.90;;;;;;4181039;28;21503;-83
2023/12/10 07:30:20;;;;;;;17.60;3.20;;;5.60;99.90;;;;;;4183585;28;20468;-85
2023/12/10 07:32:22;;;;;;;14.47;3.00;;;5.60;99.90;;;;;;4181054;28;20524;-85
2023/12/10 07:34:24;;;;;;;24.83;3.77;;;5.60;99.90;;;;;;4180438;28;20933;-85
2023/12/10 07:36:27;;;;;;;21.97;3.80;;;5.60;99.90;;;;;;4187003;28;20450;-85
2023/12/10 07:38:29;;;;;;;25.13;3.37;;;5.60;99.90;;;;;;4181198;28;20459;-86
2023/12/10 07:40:31;;;;;;;27.70;3.00;;;5.60;99.90;;;;;;4180347;28;20994;-84
2023/12/10 07:42:33;;;;;;;17.93;2.80;;;5.60;99.90;;;;;;4182653;28;20459;-83
2023/12/10 07:44:36;;;;;;;23.17;3.20;;;5.70;99.90;;;;;;4184687;28;20475;-84
2023/12/10 07:46:38;;;;;;;19.40;2.80;;;5.60;99.90;;;;;;4181410;28;20466;-83
2023/12/10 07:48:40;;;;;;;28.60;3.13;;;5.60;99.90;;;;;;4180795;28;20544;-84
2023/12/10 07:50:42;;;;;;;17.57;2.97;;;5.70;99.90;;;;;;4180077;28;20470;-86
2023/12/10 07:52:46;;;;;;;23.17;3.60;;;5.70;99.90;;;;;;4180449;28;20453;-86
2023/12/10 07:54:48;;;;;;;29.53;3.93;;;5.70;99.90;;;;;;4179309;28;20820;-85
2023/12/10 07:56:50;;;;;;;30.23;3.57;;;5.70;99.90;;;;;;4176990;28;20441;-85
2023/12/10 07:58:54;;;;;;;24.13;3.33;;;5.70;99.90;;;;;;4179352;28;20463;-84
2023/12/10 08:00:56;;;;;;;9.37;2.90;;;5.80;99.90;;;;;;4180907;28;20226;-85
2023/12/10 08:02:58;;;;;;;22.20;3.53;;;5.80;99.90;;;;;;4180766;28;20547;-86
2023/12/10 08:05:03;;;;;;;19.67;2.90;;;5.80;99.90;;;;;;4180126;28;21058;-86
2023/12/10 08:07:05;;;;;;;17.30;2.70;;;5.90;99.90;;;;;;4180136;28;20445;-86
2023/12/10 08:09:09;;;;;;;21.33;3.60;;;5.90;99.90;;;;;;4183239;28;20709;-85
2023/12/10 08:11:11;;;;;;;20.40;3.00;;;5.90;99.90;;;;;;4180616;28;20226;-85
2023/12/10 08:13:13;;;;;;;29.20;3.37;;;5.90;99.90;;;;;;4181908;28;20741;-87
2023/12/10 08:15:15;;;;;;;15.90;2.47;;;6.00;99.90;;;;;;4180875;28;21078;-85
2023/12/10 08:17:17;;;;;;;21.57;2.90;;;6.00;99.90;;;;;;4184369;28;20209;-85
2023/12/10 08:19:22;;;;;;;16.67;3.27;;;6.00;99.90;;;;;;4180984;28;20441;-85
2023/12/10 08:21:24;;;;;;;18.10;2.53;;;6.00;99.90;;;;;;4183359;28;20227;-86
2023/12/10 08:23:26;;;;;;;24.27;3.77;;;6.00;99.90;;;;;;4180585;28;20305;-85
2023/12/10 08:25:29;;;;;;;18.03;3.13;;;6.00;99.90;;;;;;4179679;28;20472;-86
2023/12/10 08:27:31;;;;;;;19.07;2.83;;;6.00;99.90;;;;;;4178438;28;20443;-86
2023/12/10 08:29:34;;;;;;;14.00;2.20;;;6.00;99.90;;;;;;4186606;28;20237;-85
2023/12/10 08:31:36;;;;;;;22.67;2.60;;;6.10;99.90;;;;;;4180178;28;20272;-83
2023/12/10 08:33:38;;;;;;;19.97;3.33;;;6.10;99.90;;;;;;4182131;28;20452;-84
2023/12/10 08:35:40;;;;;;;22.87;2.97;;;6.00;99.90;;;;;;4184884;28;20199;-84
2023/12/10 08:37:42;;;;;;;23.40;2.80;;;6.10;99.90;;;;;;4186105;28;20207;-83
2023/12/10 08:39:44;;;;;;;18.73;3.13;;;6.10;99.90;;;;;;4184354;28;20464;-84
2023/12/10 08:41:47;;;;;;;20.53;2.97;;;6.10;99.90;;;;;;4184181;28;20445;-84
2023/12/10 08:43:49;;;;;;;19.17;2.97;;;6.10;99.90;;;;;;4181555;28;20453;-83
2023/12/10 08:45:52;;;;;;;19.57;3.30;;;6.10;99.90;;;;;;4181784;28;20226;-83
2023/12/10 08:47:54;;;;;;;23.30;3.03;;;6.20;99.90;;;;;;4181586;28;20234;-84
2023/12/10 08:49:56;;;;;;;18.97;3.03;;;6.20;99.90;;;;;;4186480;28;20222;-84
2023/12/10 08:51:57;;;;;;;16.00;3.00;;;6.20;99.90;;;;;;4180695;28;20237;-87
2023/12/10 08:54:00;;;;;;;23.50;3.00;;;6.20;99.90;;;;;;4180672;28;20452;-85
2023/12/10 08:56:02;;;;;;;24.57;3.00;;;6.20;99.90;;;;;;4183903;28;20256;-84
2023/12/10 08:58:05;;;;;;;15.57;2.60;;;6.20;99.90;;;;;;4187673;28;20236;-83
2023/12/10 09:00:07;;;;;;;26.23;3.87;;;6.20;99.90;;;;;;4181621;28;20709;-84
2023/12/10 09:02:09;;;;;;;24.33;3.53;;;6.20;99.90;;;;;;4185938;28;20670;-84
2023/12/10 09:04:11;;;;;;;17.90;4.07;;;6.20;99.90;;;;;;4182734;28;20443;-84
2023/12/10 09:06:13;;;;;;;26.27;3.40;;;6.20;99.90;;;;;;4183317;28;20567;-86
2023/12/10 09:08:14;;;;;;;24.53;3.70;;;6.20;99.90;;;;;;4185581;28;20434;-86
2023/12/10 09:10:16;;;;;;;15.67;2.90;;;6.30;99.90;;;;;;4189297;28;20479;-86
2023/12/10 09:12:18;;;;;;;18.17;3.20;;;6.20;99.90;;;;;;4192294;28;20239;-86
2023/12/10 09:14:23;;;;;;;17.53;2.70;;;6.20;99.90;;;;;;4189041;28;20206;-86
2023/12/10 09:16:26;;;;;;;23.83;3.50;;;6.20;99.90;;;;;;4191145;28;20472;-85
2023/12/10 09:18:28;;;;;;;24.80;3.37;;;6.20;99.90;;;;;;4183648;28;20297;-85
2023/12/10 09:20:30;;;;;;;22.10;3.10;;;6.30;99.90;;;;;;4183037;28;20336;-85
2023/12/10 09:22:32;;;;;;;22.57;2.73;;;6.20;99.90;;;;;;4183132;28;20214;-85
2023/12/10 09:24:35;;;;;;;23.87;2.47;;;6.20;99.90;;;;;;4178856;28;20498;-86
2023/12/10 09:26:37;;;;;;;26.27;3.90;;;6.50;99.90;;;;;;4186559;28;20207;-85
2023/12/10 09:28:40;;;;;;;21.47;2.87;;;6.20;99.90;;;;;;4176819;28;20452;-84
2023/12/10 09:30:44;;;;;;;23.30;3.47;;;6.30;99.90;;;;;;4182018;28;20465;-83
2023/12/10 09:32:46;;;;;;;14.80;2.57;;;6.30;99.90;;;;;;4186771;28;20207;-85
2023/12/10 09:34:48;;;;;;;28.73;3.50;;;6.30;99.90;;;;;;4180143;28;20210;-84
2023/12/10 09:36:50;;;;;;;12.73;2.80;;;6.30;99.90;;;;;;4184707;28;20443;-83
2023/12/10 09:38:52;;;;;;;17.93;2.93;;;6.30;99.90;;;;;;4183488;28;20440;-84
2023/12/10 09:40:54;;;;;;;21.97;2.80;;;6.30;99.90;;;;;;4179983;28;20234;-83
2023/12/10 09:42:56;;;;;;;16.07;2.80;;;6.30;99.90;;;;;;4181659;28;20257;-84
2023/12/10 09:44:58;;;;;;;21.93;3.07;;;6.30;99.90;;;;;;4176391;28;20223;-84
2023/12/10 09:47:02;;;;;;;21.53;3.40;;;6.30;99.90;;;;;;4178302;28;21299;-85
2023/12/10 09:49:03;;;;;;;23.37;3.00;;;6.30;99.90;;;;;;4182252;28;20449;-83
2023/12/10 09:51:05;;;;;;;29.40;3.30;;;6.20;99.90;;;;;;4183304;28;20240;-84
2023/12/10 09:53:08;;;;;;;18.73;2.93;;;6.40;99.90;;;;;;4184046;28;20445;-85
2023/12/10 09:55:10;;;;;;;19.93;2.70;;;6.40;99.90;;;;;;4186684;28;20201;-85
2023/12/10 09:57:13;;;;;;;18.27;3.17;;;6.70;99.90;;;;;;4187178;28;20513;-84
2023/12/10 09:59:14;;;;;;;16.27;2.30;;;6.40;99.90;;;;;;4181620;28;20852;-84
2023/12/10 10:01:16;;;;;;;24.23;2.40;;;6.40;99.90;;;;;;4186939;28;20444;-83
2023/12/10 10:03:21;;;;;;;15.87;2.53;;;6.40;99.90;;;;;;4178981;28;20209;-84
2023/12/10 10:05:23;;;;;;;13.83;2.83;;;6.50;99.90;;;;;;4186813;28;20481;-84
2023/12/10 10:07:25;;;;;;;17.97;2.60;;;6.50;99.90;;;;;;4184374;28;20214;-84
2023/12/10 10:09:27;;;;;;;18.90;3.07;;;6.50;99.90;;;;;;4182347;28;20203;-84
2023/12/10 10:11:32;;;;;;;12.73;2.23;;;6.50;99.90;;;;;;4183186;28;20440;-83
2023/12/10 10:13:34;;;;;;;13.17;2.87;;;6.50;99.90;;;;;;4183001;28;20571;-84
2023/12/10 10:15:37;;;;;;;20.47;2.73;;;6.50;99.90;;;;;;4181333;28;20237;-84
2023/12/10 10:17:39;;;;;;;14.67;2.43;;;6.50;99.90;;;;;;4186214;28;20237;-85
2023/12/10 10:19:43;;;;;;;20.07;2.47;;;6.60;99.90;;;;;;4181571;28;20777;-85
2023/12/10 10:21:45;;;;;;;20.00;3.20;;;6.50;99.90;;;;;;4180947;28;20441;-86
2023/12/10 10:23:47;;;;;;;10.47;2.10;;;6.60;99.90;;;;;;4187238;28;20448;-85
2023/12/10 10:25:49;;;;;;;10.73;2.40;;;6.60;99.90;;;;;;4181979;28;20477;-85
2023/12/10 10:27:51;;;;;;;14.20;1.90;;;6.60;99.90;;;;;;4184838;28;20516;-85
2023/12/10 10:29:53;;;;;;;12.97;2.17;;;6.70;99.90;;;;;;4183705;28;20234;-85
2023/12/10 10:31:57;;;;;;;18.57;3.00;;;6.70;99.90;;;;;;4181129;28;20628;-84
2023/12/10 10:34:04;;;;;;;23.17;3.23;;;6.70;99.90;;;;;;4177995;28;20248;-83
2023/12/10 10:36:08;;;;;;;12.67;1.90;;;6.80;99.90;;;;;;4180169;28;20211;-83
2023/12/10 10:38:10;;;;;;;16.43;1.73;;;6.80;99.90;;;;;;4182104;28;20205;-88
2023/12/10 10:40:13;;;;;;;18.03;2.57;;;6.90;99.90;;;;;;4183450;28;20268;-89